Weather History for Greenville, TX

Change the Weather History Date:

Sunday, November 24, 2013

  Actual Average Record
Temperature  
Mean Temperature 34 °F -  
Max Temperature 35 °F 60 °F 80 °F (2010)
Min Temperature 32 °F 44 °F 30 °F (2003)
Degree Days  
Heating Degree Days 32    
Moisture  
Dew Point 25 °F    
Average Humidity 71    
Maximum Humidity 81    
Minimum Humidity 52    
Precipitation  
Precipitation 0.02 in - - ()
Sea Level Pressure  
Sea Level Pressure 30.49 in    
Wind  
Wind Speed 6 mph (NNE)    
Max Wind Speed 10 mph    
Max Gust Speed 18 mph    
Visibility 10 miles    
Events Rain    
Averages and records for this station are not official NWS values.
T = Trace of Precipitation, MM = Missing Value Source: NWS Daily Summary

Daily Weather History Graph

Daily Weather History Graph

Search for Another Location

Airport:

Trip Planner

Search our weather history database for the weather conditions in past years. The results will help you decide how hot, cold, wet, or windy it might be!

Date:

Astronomy

Nov. 24, 2013 Rise Set
Actual Time 7:03 AM CST 5:18 PM CST
Civil Twilight 6:36 AM CST 5:45 PM CST
Nautical Twilight 6:06 AM CST 6:15 PM CST
Astronomical Twilight 5:36 AM CST 6:45 PM CST
Moon 11:35 PM CST (11/24) 12:00 PM CST (11/24)
Length of Visible Light 11h 08m
Length of Day
10h 15m
Waning Gibbous, 60% of the Moon is Illuminated
Nov 24
Waning Gibbous
Nov 25
Last Quarter
Dec 2
New
Dec 9
First Quarter
Dec 17
Full

Hourly Weather History & Observations

Time (CST) Temp. Windchill Dew Point Humidity Pressure Visibility Wind Dir Wind Speed Gust Speed Precip Events Conditions
12:15 AM 35.6 °F 29.9 °F 26.6 °F 70% 30.53 in 10.0 mi North 6.9 mph - N/A   Clear
12:35 AM 35.6 °F 31.7 °F 26.6 °F 70% 30.53 in 10.0 mi North 4.6 mph - N/A   Clear
12:55 AM 33.8 °F 29.6 °F 26.6 °F 75% 30.52 in 10.0 mi North 4.6 mph - N/A   Clear
1:15 AM 33.8 °F 29.6 °F 26.6 °F 75% 30.52 in 10.0 mi North 4.6 mph - N/A   Clear
1:35 AM 33.8 °F 30.8 °F 26.6 °F 75% 30.52 in 10.0 mi North 3.5 mph - N/A   Clear
1:55 AM 33.8 °F 30.8 °F 26.6 °F 75% 30.53 in 10.0 mi North 3.5 mph - N/A   Clear
2:15 AM 33.8 °F 29.6 °F 26.6 °F 75% 30.53 in 10.0 mi North 4.6 mph - N/A   Clear
2:35 AM 33.8 °F 29.6 °F 26.6 °F 75% 30.53 in 10.0 mi North 4.6 mph - N/A   Clear
2:55 AM 33.8 °F 28.6 °F 26.6 °F 75% 30.54 in 10.0 mi North 5.8 mph - N/A   Clear
3:15 AM 33.8 °F 27.7 °F 28.4 °F 81% 30.56 in 10.0 mi NNW 6.9 mph - N/A   Clear
3:35 AM 33.8 °F 27.7 °F 28.4 °F 81% 30.55 in 10.0 mi North 6.9 mph - N/A   Clear
3:55 AM 33.8 °F 27.0 °F 26.6 °F 75% 30.55 in 10.0 mi North 8.1 mph - N/A   Clear
4:15 AM 33.8 °F 27.0 °F 26.6 °F 75% 30.55 in 10.0 mi North 8.1 mph 16.1 mph N/A   Clear
4:35 AM 33.8 °F 27.7 °F 26.6 °F 75% 30.55 in 10.0 mi North 6.9 mph - N/A   Clear
4:55 AM 32.0 °F 24.8 °F 26.6 °F 80% 30.56 in 10.0 mi North 8.1 mph - N/A   Clear
5:15 AM 32.0 °F 24.8 °F 26.6 °F 80% 30.57 in 10.0 mi North 8.1 mph 16.1 mph N/A   Clear
5:35 AM 32.0 °F 24.8 °F 26.6 °F 80% 30.57 in 10.0 mi North 8.1 mph - N/A   Clear
5:55 AM 32.0 °F 25.6 °F 26.6 °F 80% 30.57 in 10.0 mi North 6.9 mph - N/A   Clear
6:15 AM 32.0 °F 25.6 °F 26.6 °F 80% 30.57 in 10.0 mi North 6.9 mph - N/A   Clear
6:35 AM 32.0 °F 24.8 °F 26.6 °F 80% 30.59 in 10.0 mi North 8.1 mph - N/A   Clear
6:55 AM 32.0 °F 24.2 °F 24.8 °F 75% 30.59 in 10.0 mi North 9.2 mph - N/A   Clear
7:15 AM 32.0 °F 24.2 °F 23.0 °F 69% 30.59 in 10.0 mi North 9.2 mph - N/A   Clear
7:35 AM 32.0 °F 24.2 °F 23.0 °F 69% 30.60 in 10.0 mi North 9.2 mph - N/A   Clear
7:55 AM 32.0 °F 24.8 °F 23.0 °F 69% 30.60 in 10.0 mi NNE 8.1 mph - N/A   Clear
8:15 AM 32.0 °F 23.6 °F 23.0 °F 69% 30.58 in 10.0 mi North 10.4 mph 18.4 mph N/A   Clear
8:35 AM 32.0 °F 25.6 °F 23.0 °F 69% 30.59 in 10.0 mi NNE 6.9 mph 16.1 mph N/A   Clear
8:55 AM 32.0 °F 25.6 °F 23.0 °F 69% 30.59 in 10.0 mi NNE 6.9 mph - N/A   Clear
9:15 AM 33.8 °F 27.0 °F 23.0 °F 65% 30.57 in 10.0 mi NNE 8.1 mph - N/A   Clear
9:35 AM 33.8 °F 27.7 °F 23.0 °F 65% 30.56 in 10.0 mi NE 6.9 mph - N/A   Unknown
9:55 AM 33.8 °F 27.0 °F 23.0 °F 65% 30.55 in 10.0 mi NE 8.1 mph - N/A   Unknown
10:15 AM 33.8 °F 25.8 °F 23.0 °F 65% 30.55 in 10.0 mi NE 10.4 mph - N/A   Unknown
10:35 AM 35.6 °F 30.7 °F 21.2 °F 56% 30.55 in 10.0 mi NE 5.8 mph - N/A   Unknown
10:55 AM 35.6 °F 29.2 °F 21.2 °F 56% 30.55 in 10.0 mi NE 8.1 mph - N/A   Unknown
11:15 AM 35.6 °F 30.7 °F 21.2 °F 56% 30.55 in 10.0 mi NNE 5.8 mph - N/A   Unknown
11:35 AM 35.6 °F 28.6 °F 21.2 °F 56% 30.53 in 10.0 mi NE 9.2 mph - N/A   Unknown
11:55 AM 35.6 °F 31.7 °F 21.2 °F 56% 30.52 in 10.0 mi NNE 4.6 mph - N/A   Unknown
12:15 PM 35.6 °F 29.2 °F 21.2 °F 56% 30.52 in 10.0 mi North 8.1 mph - N/A   Unknown
12:35 PM 35.6 °F 29.9 °F 19.4 °F 52% 30.51 in 10.0 mi North 6.9 mph - N/A   Unknown
12:55 PM 35.6 °F 28.6 °F 23.0 °F 60% 30.51 in 10.0 mi North 9.2 mph - N/A Rain Light Rain
1:15 PM 33.8 °F 27.7 °F 24.8 °F 70% 30.49 in 10.0 mi North 6.9 mph - N/A Rain Rain
1:35 PM 33.8 °F 28.6 °F 23.0 °F 65% 30.48 in 10.0 mi NNE 5.8 mph - N/A Rain Light Rain
1:55 PM 33.8 °F 29.6 °F 24.8 °F 70% 30.47 in 7.0 mi NNE 4.6 mph - 0.01 in Rain Light Rain
2:15 PM 33.8 °F 30.8 °F 26.6 °F 75% 30.46 in 7.0 mi NNE 3.5 mph - N/A Rain Light Rain
2:35 PM 33.8 °F 30.8 °F 28.4 °F 81% 30.46 in 10.0 mi North 3.5 mph - N/A   Light Drizzle
2:55 PM 33.8 °F 29.6 °F 28.4 °F 81% 30.46 in 10.0 mi North 4.6 mph - N/A   Overcast
3:15 PM 33.8 °F 29.6 °F 28.4 °F 81% 30.47 in 10.0 mi North 4.6 mph - N/A   Overcast
3:35 PM 33.8 °F 28.6 °F 26.6 °F 75% 30.46 in 10.0 mi NE 5.8 mph - N/A   Overcast
3:55 PM 33.8 °F 29.6 °F 26.6 °F 75% 30.47 in 10.0 mi North 4.6 mph - N/A   Overcast
4:15 PM 33.8 °F 28.6 °F 26.6 °F 75% 30.46 in 10.0 mi NNE 5.8 mph - N/A   Overcast
4:35 PM 33.8 °F 27.7 °F 26.6 °F 75% 30.46 in 10.0 mi NNE 6.9 mph - N/A   Overcast
4:55 PM 33.8 °F 27.0 °F 26.6 °F 75% 30.45 in 10.0 mi NE 8.1 mph - N/A   Overcast
5:15 PM 33.8 °F 27.7 °F 26.6 °F 75% 30.43 in 10.0 mi NNE 6.9 mph - N/A   Overcast
5:35 PM 33.8 °F 27.0 °F 26.6 °F 75% 30.41 in 10.0 mi NE 8.1 mph - N/A   Overcast
5:55 PM 33.8 °F 30.8 °F 26.6 °F 75% 30.42 in 10.0 mi NE 3.5 mph - N/A   Overcast
6:15 PM 33.8 °F 29.6 °F 24.8 °F 70% 30.43 in 10.0 mi NE 4.6 mph - N/A   Overcast
6:35 PM 33.8 °F 29.6 °F 23.0 °F 65% 30.43 in 10.0 mi NE 4.6 mph - N/A   Overcast
6:55 PM 33.8 °F 28.6 °F 24.8 °F 70% 30.42 in 10.0 mi NE 5.8 mph - N/A   Overcast
7:15 PM 33.8 °F 29.6 °F 24.8 °F 70% 30.41 in 10.0 mi NE 4.6 mph - N/A   Overcast
7:35 PM 33.8 °F 29.6 °F 24.8 °F 70% 30.40 in 10.0 mi ENE 4.6 mph - N/A   Overcast
7:55 PM 33.8 °F 28.6 °F 23.0 °F 65% 30.40 in 10.0 mi East 5.8 mph - 0.01 in   Overcast
8:15 PM 33.8 °F 30.8 °F 23.0 °F 65% 30.40 in 10.0 mi ENE 3.5 mph - N/A   Overcast
8:35 PM 33.8 °F 30.8 °F 23.0 °F 65% 30.40 in 10.0 mi East 3.5 mph - N/A   Overcast
8:55 PM 33.8 °F - 24.8 °F 70% 30.40 in 10.0 mi Calm Calm - N/A   Overcast
9:15 PM 33.8 °F 29.6 °F 24.8 °F 70% 30.40 in 10.0 mi East 4.6 mph - N/A   Overcast
9:35 PM 33.8 °F 30.8 °F 24.8 °F 70% 30.38 in 10.0 mi East 3.5 mph - N/A   Overcast
9:55 PM 33.8 °F 27.0 °F 24.8 °F 70% 30.37 in 10.0 mi East 8.1 mph - N/A   Overcast
10:15 PM 33.8 °F 28.6 °F 24.8 °F 70% 30.37 in 10.0 mi East 5.8 mph - N/A   Overcast
10:35 PM 33.8 °F 28.6 °F 26.6 °F 75% 30.37 in 10.0 mi East 5.8 mph - N/A   Overcast
10:55 PM 33.8 °F - 26.6 °F 75% 30.37 in 10.0 mi Calm Calm - N/A   Overcast
11:15 PM 33.8 °F - 26.6 °F 75% 30.37 in 10.0 mi Calm Calm - N/A   Overcast
11:35 PM 33.8 °F 30.8 °F 26.6 °F 75% 30.36 in 10.0 mi East 3.5 mph - N/A   Overcast
11:55 PM 33.8 °F - 26.6 °F 75% 30.36 in 10.0 mi Calm Calm - N/A   Overcast